Latest Weather Observations for Tatura

IDV60801

Issued at 5:02 pm EST Friday 31 July 2015 (issued every 30 minutes, with the page automatically refreshed every 10 minutes)

About weather observations | Map of weather stations | Latest weather observations for VIC | Other Formats
Station Details ID: 081049 Name: TATURA INST SUSTAINABLE AG Lat: -36.44 Lon: 145.27 Height: 114.0 m
Data from the previous 72 hours. | See also: Recent months at Tatura
Date/Time
EST
Temp
°C
App
Temp
°C
Dew
Point
Rel
Hum
%
Delta-T
°C
Wind Press
QNH
hPa
Press
MSL
hPa
Rain
since 9 am
mm
Dir
 
Spd
km/h
Gust
km/h
Spd
kts
Gust
kts
31/05:00pm 10.6 6.6 2.7 58 3.4 NNE 13 19 7 10 - - 0.0
31/04:30pm 11.7 7.7 3.0 55 3.8 NNE 13 17 7 9 - - 0.0
31/04:00pm 11.9 7.5 2.9 54 4.0 NNE 15 22 8 12 - - 0.0
31/03:30pm 12.3 8.1 3.8 56 3.8 NNE 15 20 8 11 - - 0.0
31/03:00pm 12.5 8.5 2.9 52 4.2 N 13 17 7 9 - - 0.0
31/02:30pm 12.5 8.9 3.2 53 4.1 N 11 19 6 10 - - 0.0
31/02:00pm 12.3 9.0 2.2 50 4.4 N 9 15 5 8 - - 0.0
31/01:30pm 12.2 9.3 2.4 51 4.3 NE 7 15 4 8 - - 0.0
31/01:00pm 12.0 10.0 2.5 52 4.1 WSW 2 9 1 5 - - 0.0
31/12:30pm 12.8 11.2 4.5 57 3.8 S 2 7 1 4 - - 0.0
31/12:00pm 10.9 8.8 4.1 63 3.0 S 4 9 2 5 - - 0.0
31/11:30am 10.2 7.2 3.9 65 2.8 SSE 9 13 5 7 - - 0.0
31/11:00am 9.6 6.3 4.4 70 2.3 SSW 11 17 6 9 - - 0.0
31/10:30am 9.2 6.1 5.6 78 1.6 SW 11 15 6 8 - - 0.0
31/10:00am 7.9 5.3 6.0 88 0.9 SW 9 13 5 7 - - 0.0
31/09:30am 6.2 3.8 5.3 94 0.4 SSW 7 11 4 6 - - 0.0
31/09:00am 5.0 2.1 4.9 99 0.0 SW 9 13 5 7 - - 1.4
31/08:30am 3.0 0.7 2.9 99 0.0 WSW 4 7 2 4 - - 1.4
31/08:00am 1.1 -1.1 1.0 99 0.0 WSW 2 7 1 4 - - 1.4
31/07:30am 0.7 -2.6 0.4 98 0.1 S 7 9 4 5 - - 1.4
31/07:00am 1.0 -2.2 0.7 98 0.1 S 7 9 4 5 - - 1.4
31/06:30am 2.6 -0.1 2.5 99 0.0 S 6 7 3 4 - - 1.4
31/06:00am 3.0 0.2 2.9 99 0.0 SSW 7 7 4 4 - - 1.2
31/05:30am 3.9 0.5 3.8 99 0.0 SW 11 11 6 6 - - 1.2
31/05:00am 4.2 1.2 3.9 98 0.1 WSW 9 11 5 6 - - 1.2
31/04:30am 5.0 2.1 4.7 98 0.1 SW 9 13 5 7 - - 1.2
31/04:00am 5.1 1.8 4.8 98 0.1 SW 11 13 6 7 - - 1.2
31/03:30am 5.8 3.1 5.5 98 0.1 WSW 9 15 5 8 - - 1.2
31/03:00am 6.2 3.2 5.9 98 0.1 WSW 11 13 6 7 - - 1.2
31/02:30am 6.1 3.4 5.7 97 0.2 W 9 11 5 6 - - 1.2
31/02:00am 6.8 4.2 6.2 96 0.3 WNW 9 11 5 6 - - 1.2
31/01:30am 7.6 6.9 6.9 95 0.3 CALM 0 0 0 0 - - 1.2
31/01:00am 7.9 5.9 7.1 95 0.4 WNW 7 7 4 4 - - 1.2
31/12:30am 8.0 6.5 6.9 93 0.5 NW 4 7 2 4 - - 1.2
31/12:00am 8.2 7.4 6.7 90 0.7 CALM 0 0 0 0 - - 1.0
 
Date/Time
EST
Temp
°C
App
Temp
°C
Dew
Point
Rel
Hum
%
Delta-T
°C
Wind Press
QNH
hPa
Press
MSL
hPa
Rain
since 9 am
mm
Dir
 
Spd
km/h
Gust
km/h
Spd
kts
Gust
kts
30/11:30pm 8.9 7.2 6.0 82 1.3 NNW 4 9 2 5 - - 0.2
30/11:00pm 8.8 5.8 6.1 83 1.2 NNE 11 15 6 8 - - 0.2
30/10:30pm 8.8 5.8 5.9 82 1.3 NNE 11 17 6 9 - - 0.2
30/10:00pm 8.9 6.3 6.0 82 1.3 NNE 9 13 5 7 - - 0.2
30/09:30pm 8.8 6.2 6.1 83 1.2 NNE 9 13 5 7 - - 0.2
30/09:00pm 8.6 5.6 5.9 83 1.2 NNE 11 15 6 8 - - 0.2
30/08:30pm 8.6 6.0 6.1 84 1.1 NNE 9 13 5 7 - - 0.2
30/08:00pm 8.6 5.6 6.1 84 1.1 NNE 11 15 6 8 - - 0.2
30/07:30pm 8.6 6.4 6.2 85 1.1 N 7 11 4 6 - - 0.2
30/07:00pm 9.2 5.7 5.6 78 1.6 N 13 19 7 10 - - 0.0
30/06:30pm 9.4 5.1 5.4 76 1.8 NNE 17 24 9 13 - - 0.0
30/06:00pm 9.4 4.7 5.2 75 1.9 NNE 19 26 10 14 - - 0.0
30/05:30pm 9.7 5.3 4.9 72 2.2 NNE 17 24 9 13 - - 0.0
30/05:00pm 10.0 5.1 5.0 71 2.3 NNE 20 30 11 16 - - 0.0
30/04:30pm 10.2 4.9 5.2 71 2.3 N 22 32 12 17 - - 0.0
30/04:00pm 10.3 4.7 5.3 71 2.3 NNE 24 41 13 22 - - 0.0
30/03:30pm 10.3 5.0 5.1 70 2.4 NNE 22 30 12 16 - - 0.0
30/03:00pm 10.3 5.4 4.9 69 2.5 NNE 20 30 11 16 - - 0.0
30/02:30pm 10.5 5.5 4.4 66 2.7 N 20 30 11 16 - - 0.0
30/02:00pm 11.1 5.3 4.6 64 3.0 N 24 32 13 17 - - 0.0
30/01:30pm 11.0 6.1 4.9 66 2.8 N 20 33 11 18 - - 0.0
30/01:00pm 10.7 5.5 5.3 69 2.5 N 22 33 12 18 - - 0.0
30/12:30pm 10.6 6.4 5.8 72 2.2 N 17 24 9 13 - - 0.0
30/12:00pm 9.9 5.1 5.5 74 2.0 N 20 26 11 14 - - 0.0
30/11:30am 10.0 5.5 6.0 76 1.9 N 19 28 10 15 - - 0.0
30/11:00am 9.7 5.1 6.4 80 1.5 N 20 28 11 15 - - 0.0
30/10:30am 9.4 4.8 6.7 83 1.3 N 20 24 11 13 - - 0.0
30/10:00am 7.9 3.7 5.9 87 0.9 N 17 22 9 12 - - 0.0
30/09:30am 7.8 3.7 6.1 89 0.8 NNE 17 24 9 13 - - 0.0
30/09:00am 6.7 2.8 5.3 91 0.6 NNE 15 20 8 11 - - 0.0
30/08:30am 5.6 2.4 5.0 96 0.3 NE 11 17 6 9 - - 0.0
30/08:00am 4.6 1.3 4.3 98 0.1 NE 11 15 6 8 - - 0.0
30/07:30am 3.7 0.5 3.3 97 0.2 NE 9 13 5 7 - - 0.0
30/07:00am 3.8 1.0 3.2 96 0.2 NNE 7 9 4 5 - - 0.0
30/06:30am 4.4 0.6 3.8 96 0.3 NE 13 17 7 9 - - 0.0
30/06:00am 4.6 1.2 4.2 97 0.2 NE 11 15 6 8 - - 0.0
30/05:30am 4.4 1.0 4.0 97 0.2 NE 11 13 6 7 - - 0.0
30/05:00am 4.2 1.5 3.6 96 0.2 NE 7 11 4 6 - - 0.0
30/04:30am 4.5 1.4 3.8 95 0.3 NE 9 13 5 7 - - 0.0
30/04:00am 4.6 1.5 3.7 94 0.4 NE 9 11 5 6 - - 0.0
30/03:30am 5.1 2.1 4.1 93 0.4 NE 9 11 5 6 - - 0.0
30/03:00am 5.4 2.8 4.2 92 0.5 NNE 7 9 4 5 - - 0.0
30/02:30am 6.0 3.0 4.3 89 0.7 NE 9 13 5 7 - - 0.0
30/02:00am 6.7 3.8 4.9 88 0.8 NE 9 13 5 7 - - 0.0
30/01:30am 7.2 4.4 5.3 88 0.8 NNE 9 13 5 7 - - 0.0
30/01:00am 7.0 4.2 5.3 89 0.8 NNE 9 11 5 6 - - 0.0
30/12:30am 6.5 4.0 5.0 90 0.7 NNE 7 9 4 5 - - 0.0
30/12:00am 7.0 4.8 5.3 89 0.8 NNE 6 9 3 5 - - 0.0
 
Date/Time
EST
Temp
°C
App
Temp
°C
Dew
Point
Rel
Hum
%
Delta-T
°C
Wind Press
QNH
hPa
Press
MSL
hPa
Rain
since 9 am
mm
Dir
 
Spd
km/h
Gust
km/h
Spd
kts
Gust
kts
29/11:30pm 7.3 4.6 5.4 88 0.9 NE 9 13 5 7 - - 0.0
29/11:00pm 7.5 5.2 5.5 87 0.9 NNE 7 9 4 5 - - 0.0
29/10:30pm 7.6 5.8 5.6 87 0.9 NNE 4 7 2 4 - - 0.0
29/10:00pm 8.2 5.9 5.8 85 1.1 NNE 7 9 4 5 - - 0.0
29/09:30pm 8.2 5.9 5.7 84 1.1 NNE 7 9 4 5 - - 0.0
29/09:00pm 8.3 7.3 5.8 84 1.1 CALM 0 0 0 0 - - 0.0
29/08:30pm 8.0 6.9 5.3 83 1.2 CALM 0 0 0 0 - - 0.0
29/08:00pm 8.5 7.4 4.9 78 1.6 CALM 0 0 0 0 - - 0.0
29/07:30pm 8.5 6.6 5.1 79 1.5 N 4 6 2 3 - - 0.0
29/07:00pm 9.0 6.5 5.0 76 1.8 NE 7 9 4 5 - - 0.0
29/06:30pm 9.1 8.0 5.1 76 1.8 CALM 0 0 0 0 - - 0.0
29/06:00pm 9.4 7.2 5.2 75 1.9 N 6 7 3 4 - - 0.0
29/05:30pm 9.9 8.9 5.7 75 1.9 CALM 0 0 0 0 - - 0.0
29/05:00pm 10.2 8.0 5.4 72 2.2 NE 6 7 3 4 - - 0.0
29/04:30pm 10.4 7.9 5.0 69 2.5 NNE 7 9 4 5 - - 0.0
29/04:00pm 10.6 7.8 5.2 69 2.5 NNE 9 13 5 7 - - 0.0
29/03:30pm 10.8 8.6 6.2 73 2.2 N 7 13 4 7 - - 0.0
29/03:00pm 10.3 8.0 5.5 72 2.2 NNW 7 11 4 6 - - 0.0
29/02:30pm 10.4 7.7 5.8 73 2.1 NW 9 13 5 7 - - 0.0
29/02:00pm 10.7 7.3 5.7 71 2.3 NNW 13 19 7 10 - - 0.0
29/01:30pm 11.1 7.8 6.3 72 2.3 N 13 17 7 9 - - 0.0
29/01:00pm 10.0 7.2 6.9 81 1.5 NNE 11 17 6 9 - - 0.0
29/12:30pm 8.3 5.3 6.1 86 1.0 N 11 15 6 8 - - 0.0
29/12:00pm 7.4 4.4 6.2 92 0.5 N 11 15 6 8 - - 0.0
29/11:30am 6.4 3.8 6.3 99 0.0 N 9 13 5 7 - - 0.0
29/11:00am 5.3 2.1 5.2 99 0.0 NE 11 15 6 8 - - 0.0
29/10:30am 4.4 1.4 4.3 99 0.0 N 9 11 5 6 - - 0.0
29/10:00am 3.7 1.9 3.6 99 0.0 NNE 2 7 1 4 - - 0.0
29/09:30am 2.7 0.4 2.6 99 0.0 N 4 9 2 5 - - 0.0
29/09:00am 1.5 -1.0 1.4 99 0.0 NNE 4 6 2 3 - - 0.2
29/08:30am 0.3 -2.4 0.2 99 0.0 NE 4 9 2 5 - - 0.0
29/08:00am -0.3 -3.1 -0.4 99 0.0 ENE 4 7 2 4 - - 0.0
29/07:30am -0.7 -2.8 -0.8 99 0.0 CALM 0 0 0 0 - - 0.0
29/07:00am -1.0 -3.1 -1.1 99 0.0 CALM 0 0 0 0 - - 0.0
29/06:30am -1.2 -3.4 -1.3 99 0.0 CALM 0 0 0 0 - - 0.0
29/06:00am -1.6 -3.8 -1.9 98 0.0 CALM 0 0 0 0 - - 0.0
29/05:30am -1.3 -3.5 -1.6 98 0.0 CALM 0 0 0 0 - - 0.0
29/05:00am -1.2 -3.4 -1.5 98 0.0 CALM 0 0 0 0 - - 0.0
29/04:30am -1.3 -3.5 -1.6 98 0.0 CALM 0 0 0 0 - - 0.0
29/04:00am -1.2 -3.4 -1.5 98 0.0 CALM 0 0 0 0 - - 0.0
29/03:30am -0.5 -2.6 -0.8 98 0.1 CALM 0 0 0 0 - - 0.0
29/03:00am -1.0 -3.2 -1.3 98 0.1 CALM 0 0 0 0 - - 0.0
29/02:30am -0.9 -3.1 -1.2 98 0.1 CALM 0 0 0 0 - - 0.0
29/02:00am 0.1 -1.9 -0.2 98 0.1 CALM 0 0 0 0 - - 0.0
29/01:30am 0.2 -1.8 -0.1 98 0.1 CALM 0 0 0 0 - - 0.0
29/01:00am 0.8 -1.1 0.5 98 0.1 CALM 0 0 0 0 - - 0.0
29/12:30am 0.5 -1.5 0.1 97 0.1 CALM 0 0 0 0 - - 0.0
29/12:00am 1.0 -0.9 0.6 97 0.1 CALM 0 0 0 0 - - 0.0
 
Date/Time
EST
Temp
°C
App
Temp
°C
Dew
Point
Rel
Hum
%
Delta-T
°C
Wind Press
QNH
hPa
Press
MSL
hPa
Rain
since 9 am
mm
Dir
 
Spd
km/h
Gust
km/h
Spd
kts
Gust
kts
28/11:30pm 1.0 -0.9 0.6 97 0.1 CALM 0 0 0 0 - - 0.0
28/11:00pm 1.3 -0.5 0.9 97 0.2 CALM 0 0 0 0 - - 0.0
28/10:30pm 2.7 1.1 2.4 98 0.1 CALM 0 0 0 0 - - 0.0
28/10:00pm 2.1 0.4 1.7 97 0.2 CALM 0 0 0 0 - - 0.0
28/09:30pm 2.3 0.6 1.7 96 0.2 CALM 0 0 0 0 - - 0.0
28/09:00pm 2.6 0.9 1.9 95 0.3 CALM 0 0 0 0 - - 0.0
28/08:30pm 2.9 1.2 1.9 93 0.4 CALM 0 0 0 0 - - 0.0
28/08:00pm 4.2 2.7 2.9 91 0.5 CALM 0 0 0 0 - - 0.0
28/07:30pm 5.4 4.0 3.6 88 0.8 CALM 0 0 0 0 - - 0.0
28/07:00pm 5.8 4.5 4.0 88 0.8 CALM 0 0 0 0 - - 0.0
28/06:30pm 6.9 5.6 4.2 83 1.2 CALM 0 0 0 0 - - 0.0
28/06:00pm 7.9 5.9 4.3 78 1.6 W 4 7 2 4 - - 0.0
28/05:30pm 9.8 7.5 5.6 75 1.9 W 7 9 4 5 - - 0.0

Other Formats:

Comma delimited format used in spreadsheet applications
http://www.bom.gov.au/fwo/IDV60801/IDV60801.95836.axf

JavaScript Object Notation format (JSON) in row-major order
http://www.bom.gov.au/fwo/IDV60801/IDV60801.95836.json